Wedron, IL (60557)

6:19 PM CDT on May 24, 2017 (GMT -0500)
Acres 6 | | Change Station
Active Advisory: Flood Advisory Active Notice: Flood Advisory

Elev 653 ft 41.46 °N, 88.77 °W | Updated 11 seconds ago

Overcast
Overcast
61.3 °F
Feels Like 61.3 °F
N
2.0
Wind Variable Wind from NNW

Today
High -- | Low -- °F
--% Chance of Precip.
Yesterday
High -- | Low -- °F
Precip. -- in
Pressure 29.54 in
Visibility 10.0 miles
Clouds Mostly Cloudy 2600 ft
Overcast 3200 ft
Dew Point 56 °F
Humidity 83%
Rainfall 0.02 in
Snow Depth Not available.
5:28 AM 8:16 PM
Waning Crescent, 1% visible
METAR KC09 242255Z AUTO 00000KT 10SM BKN026 OVC032 17/12 A2954 RMK AO2 T01650117
Pressure 29.54 in
Visibility 10.0 miles
Clouds Mostly Cloudy 2600 ft
Overcast 3200 ft
Dew Point 56 °F
Humidity 83%
Rainfall 0.02 in
Snow Depth Not available.
5:28 AM 8:16 PM
Waning Crescent, 1% visible
METAR KC09 242255Z AUTO 00000KT 10SM BKN026 OVC032 17/12 A2954 RMK AO2 T01650117

Get Your Daily Forecast Email!

Thanks for signing up!

Be on the lookout for a verification email in your inbox.

You'll start receiving severe weather alerts in your inbox..

×

10-Day Weather Forecast

Almanac

Astronomy

May. 24, 2017 Rise Set
Actual Time
Civil Twilight
Nautical Twilight
Astronomical Twilight
Moon
Length of Visible Light
Length of Day
Tomorrow will be .
, % of the Moon is Illuminated

Today's Extremes

State Highs State Lows

Community

WunderPhotos

Category 6

Welcome to Category 6. This is the collective home for Weather Underground's featured writeups by Dr. Jeff Masters (right), Bob Henson (left), Chris Burt, and other regular contributors.

Nearby

Air Quality

  Air Quality AQ Index Pollutant
Not available.

Snow Depth

Station Depth Elevation

Earthquake Activity

City Distance Mag. Time & Date
Minimum magnitude displayed is 2.5.

Coastal Water Temperatures

Place Temperature

Stations

Nearby Weather Stations

Station Location Temp. Windchill Dew Point Humidity Wind Precip. Elev Updated Type
                   

Watches & Warnings

Flood Advisory
Issued: 11:34 AM CDT May. 24, 2017 – National Weather Service

The flood advisory continues for
the Illinois River at La Salle
* until Saturday afternoon.
* At 1045 am Wednesday the stage was 18.8 feet.
* Action stage is 19.0 feet.
* Flood stage is 20.0 feet.
* Forecast... the river will rise to near 19.8 feet by Thursday
evening.
* Impact... at 20.0 feet... agricultural areas in La Salle, Spring
Valley, and Peru lowlands are flooded.


Lat... Lon 4128 8896 4126 8930 4135 8929 4137 8896